LIPX Airport Information

Runway Information
Runway 04 Length 10064 ft width 148 ft
Elevation 220 ft Threshold 189 ft Heading 46
Runway 22 Length 10064 ft Width 148 ft
Elevation 238 ft Threshold 1345 ft Heading 226
Airport Frequencies
Type APP Name GARDA APP Frequency 36.23 MHZ
Type APP Name GARDA APP Frequency 124.45 MHZ
Type GND Name GND Frequency 121.75 MHZ
Type INFO Name PADOVA INF Frequency 123.25 MHZ
Type TWR Name TWR Frequency 118.65 MHZ
Airport Navaids
Type VORTAC Name Villafranca Frequency 115800 KHZ
Type NDB Name Villafranca Frequency 355 KHZ
Airport Weather Information & NOTAM
ADDS - METARS form results

(1537 UTC 30 June 2022)
Data provider http://aviationweather.gov/metar/data/
 
METAR text: LIPX 301520Z 18005KT 120V240 9999 FEW050 32/18 Q1011
Conditions at: LIPX (VILLAFRANCA(CV/M, IT) observed 1520 UTC 30 June 2022
Temperature: 32.0°C (90°F)
Dewpoint: 18.0°C (64°F) [RH = 43%]
Pressure (altimeter): 29.85 inches Hg (1011.0 mb)
Winds: from the S (180 degrees) at 6 MPH (5 knots; 2.6 m/s)
Visibility: 6 or more miles (10+ km)
Ceiling: at least 12,000 feet AGL
Clouds: few clouds at 5000 feet AGL
Weather: no significant weather observed at this time

METAR text: LIPX 301450Z 18005KT 070V240 9999 FEW050 33/18 Q1011
Conditions at: LIPX (VILLAFRANCA(CV/M, IT) observed 1450 UTC 30 June 2022
Temperature: 33.0°C (91°F)
Dewpoint: 18.0°C (64°F) [RH = 41%]
Pressure (altimeter): 29.85 inches Hg (1011.0 mb)
Winds: from the S (180 degrees) at 6 MPH (5 knots; 2.6 m/s)
Visibility: 6 or more miles (10+ km)
Ceiling: at least 12,000 feet AGL
Clouds: few clouds at 5000 feet AGL
Weather: no significant weather observed at this time

Forecast for: LIPX (VILLAFRANCA(CV/M, IT)
Text: TAF LIPX 301100Z 3012/0112 VRB05KT CAVOK
Forecast period: 1200 to 1800 UTC 30 June 2022
Forecast type: FROM: standard forecast or significant change
Winds: variable direction winds at 6 MPH (5 knots; 2.6 m/s)
Visibility: 6 or more miles (10+ km)
Ceiling: unknown
Clouds: missing
Weather: NSW  (no significant weather)
Text: BECMG 3018/3020 09010KT
Forecast period: 1800 UTC 30 June 2022 to 1200 UTC 01 July 2022
Forecast type: BECOMING: Conditions expected to become as follows by 2000 UTC 30 June 2022
Winds: from the E (90 degrees) at 12 MPH (10 knots; 5.1 m/s)
Visibility: 6 or more miles (10+ km)
Ceiling: unknown
Clouds: missing
Weather: NSW  (no significant weather)